sensor_id;sensor_type;location;lat;lon;timestamp;P1;durP1;ratioP1;P2;durP2;ratioP2
69779;SDS011;57052;55.602;38.096;2023-09-19T00:00:42;18.73;;;10.07;;
69779;SDS011;57052;55.602;38.096;2023-09-19T00:03:09;19.33;;;10.65;;
69779;SDS011;57052;55.602;38.096;2023-09-19T00:05:37;20.88;;;10.98;;
69779;SDS011;57052;55.602;38.096;2023-09-19T00:08:03;19.30;;;10.20;;
69779;SDS011;57052;55.602;38.096;2023-09-19T00:10:30;22.77;;;10.68;;
69779;SDS011;57052;55.602;38.096;2023-09-19T00:13:00;18.95;;;10.43;;
69779;SDS011;57052;55.602;38.096;2023-09-19T00:15:35;18.65;;;10.77;;
69779;SDS011;57052;55.602;38.096;2023-09-19T00:18:03;18.53;;;9.77;;
69779;SDS011;57052;55.602;38.096;2023-09-19T00:20:31;20.45;;;10.25;;
69779;SDS011;57052;55.602;38.096;2023-09-19T00:22:57;19.98;;;10.00;;
69779;SDS011;57052;55.602;38.096;2023-09-19T00:25:30;20.58;;;10.63;;
69779;SDS011;57052;55.602;38.096;2023-09-19T00:27:57;18.27;;;10.45;;
69779;SDS011;57052;55.602;38.096;2023-09-19T00:30:23;19.25;;;10.40;;
69779;SDS011;57052;55.602;38.096;2023-09-19T00:32:51;18.30;;;9.70;;
69779;SDS011;57052;55.602;38.096;2023-09-19T00:35:20;20.65;;;9.73;;
69779;SDS011;57052;55.602;38.096;2023-09-19T00:37:49;16.95;;;9.68;;
69779;SDS011;57052;55.602;38.096;2023-09-19T00:40:16;19.33;;;8.93;;
69779;SDS011;57052;55.602;38.096;2023-09-19T00:42:45;16.77;;;9.18;;
69779;SDS011;57052;55.602;38.096;2023-09-19T00:45:12;15.70;;;8.50;;
69779;SDS011;57052;55.602;38.096;2023-09-19T00:47:40;15.95;;;8.85;;
69779;SDS011;57052;55.602;38.096;2023-09-19T00:50:07;14.90;;;7.90;;
69779;SDS011;57052;55.602;38.096;2023-09-19T00:52:34;18.83;;;8.55;;
69779;SDS011;57052;55.602;38.096;2023-09-19T00:55:05;14.60;;;7.75;;
69779;SDS011;57052;55.602;38.096;2023-09-19T00:57:32;12.45;;;7.45;;
69779;SDS011;57052;55.602;38.096;2023-09-19T00:59:59;13.85;;;7.78;;
69779;SDS011;57052;55.602;38.096;2023-09-19T01:02:31;12.00;;;7.07;;
69779;SDS011;57052;55.602;38.096;2023-09-19T01:04:57;13.20;;;7.35;;
69779;SDS011;57052;55.602;38.096;2023-09-19T01:07:24;13.65;;;7.25;;
69779;SDS011;57052;55.602;38.096;2023-09-19T01:09:49;13.60;;;7.60;;
69779;SDS011;57052;55.602;38.096;2023-09-19T01:12:18;12.45;;;6.88;;
69779;SDS011;57052;55.602;38.096;2023-09-19T01:14:59;15.07;;;7.28;;
69779;SDS011;57052;55.602;38.096;2023-09-19T01:17:38;13.13;;;7.13;;
69779;SDS011;57052;55.602;38.096;2023-09-19T01:23:35;13.70;;;7.35;;
69779;SDS011;57052;55.602;38.096;2023-09-19T01:32:09;10.80;;;6.43;;
69779;SDS011;57052;55.602;38.096;2023-09-19T01:34:43;12.77;;;6.90;;
69779;SDS011;57052;55.602;38.096;2023-09-19T01:37:10;10.18;;;6.53;;
69779;SDS011;57052;55.602;38.096;2023-09-19T01:39:36;10.63;;;6.50;;
69779;SDS011;57052;55.602;38.096;2023-09-19T01:42:15;13.43;;;6.60;;
69779;SDS011;57052;55.602;38.096;2023-09-19T01:47:41;11.52;;;7.00;;
69779;SDS011;57052;55.602;38.096;2023-09-19T01:52:56;10.82;;;6.40;;
69779;SDS011;57052;55.602;38.096;2023-09-19T01:55:29;10.18;;;6.40;;
69779;SDS011;57052;55.602;38.096;2023-09-19T01:58:06;11.20;;;6.43;;
69779;SDS011;57052;55.602;38.096;2023-09-19T02:00:39;10.15;;;6.40;;
69779;SDS011;57052;55.602;38.096;2023-09-19T02:03:08;12.40;;;6.40;;
69779;SDS011;57052;55.602;38.096;2023-09-19T02:05:35;16.48;;;6.35;;
69779;SDS011;57052;55.602;38.096;2023-09-19T02:08:01;11.52;;;6.43;;
69779;SDS011;57052;55.602;38.096;2023-09-19T02:10:26;9.65;;;5.88;;
69779;SDS011;57052;55.602;38.096;2023-09-19T02:12:52;12.90;;;6.15;;
69779;SDS011;57052;55.602;38.096;2023-09-19T02:15:18;10.73;;;6.53;;
69779;SDS011;57052;55.602;38.096;2023-09-19T02:17:44;12.18;;;6.22;;
69779;SDS011;57052;55.602;38.096;2023-09-19T02:20:12;10.85;;;6.55;;
69779;SDS011;57052;55.602;38.096;2023-09-19T02:22:39;10.93;;;5.95;;
69779;SDS011;57052;55.602;38.096;2023-09-19T02:25:24;11.30;;;6.03;;
69779;SDS011;57052;55.602;38.096;2023-09-19T02:27:52;12.88;;;6.18;;
69779;SDS011;57052;55.602;38.096;2023-09-19T02:30:19;9.40;;;5.82;;
69779;SDS011;57052;55.602;38.096;2023-09-19T02:32:51;8.90;;;5.78;;
69779;SDS011;57052;55.602;38.096;2023-09-19T02:35:17;12.35;;;6.30;;
69779;SDS011;57052;55.602;38.096;2023-09-19T02:37:45;9.88;;;5.88;;
69779;SDS011;57052;55.602;38.096;2023-09-19T02:40:11;11.52;;;6.25;;
69779;SDS011;57052;55.602;38.096;2023-09-19T02:42:55;10.07;;;6.05;;
69779;SDS011;57052;55.602;38.096;2023-09-19T02:45:21;8.98;;;5.80;;
69779;SDS011;57052;55.602;38.096;2023-09-19T02:47:49;11.43;;;6.45;;
69779;SDS011;57052;55.602;38.096;2023-09-19T02:50:14;11.80;;;5.95;;
69779;SDS011;57052;55.602;38.096;2023-09-19T02:52:42;9.90;;;6.15;;
69779;SDS011;57052;55.602;38.096;2023-09-19T02:55:09;11.15;;;5.97;;
69779;SDS011;57052;55.602;38.096;2023-09-19T02:57:40;9.25;;;5.45;;
69779;SDS011;57052;55.602;38.096;2023-09-19T03:00:09;10.43;;;5.57;;
69779;SDS011;57052;55.602;38.096;2023-09-19T03:02:38;8.68;;;5.18;;
69779;SDS011;57052;55.602;38.096;2023-09-19T03:05:06;10.68;;;5.82;;
69779;SDS011;57052;55.602;38.096;2023-09-19T03:07:33;11.00;;;5.72;;
69779;SDS011;57052;55.602;38.096;2023-09-19T03:09:59;8.32;;;5.20;;
69779;SDS011;57052;55.602;38.096;2023-09-19T03:12:26;11.30;;;6.05;;
69779;SDS011;57052;55.602;38.096;2023-09-19T03:14:52;8.95;;;5.60;;
69779;SDS011;57052;55.602;38.096;2023-09-19T03:17:18;9.45;;;5.63;;
69779;SDS011;57052;55.602;38.096;2023-09-19T03:19:45;9.63;;;5.53;;
69779;SDS011;57052;55.602;38.096;2023-09-19T03:22:12;8.20;;;5.15;;
69779;SDS011;57052;55.602;38.096;2023-09-19T03:24:39;8.93;;;5.25;;
69779;SDS011;57052;55.602;38.096;2023-09-19T03:27:04;10.30;;;5.85;;
69779;SDS011;57052;55.602;38.096;2023-09-19T03:29:30;9.52;;;5.70;;
69779;SDS011;57052;55.602;38.096;2023-09-19T03:31:55;11.60;;;6.07;;
69779;SDS011;57052;55.602;38.096;2023-09-19T03:34:21;10.60;;;5.82;;
69779;SDS011;57052;55.602;38.096;2023-09-19T03:36:47;14.10;;;5.65;;
69779;SDS011;57052;55.602;38.096;2023-09-19T03:39:12;11.73;;;5.65;;
69779;SDS011;57052;55.602;38.096;2023-09-19T03:41:40;11.85;;;5.68;;
69779;SDS011;57052;55.602;38.096;2023-09-19T03:44:06;9.98;;;5.80;;
69779;SDS011;57052;55.602;38.096;2023-09-19T03:46:31;10.82;;;6.30;;
69779;SDS011;57052;55.602;38.096;2023-09-19T03:48:57;10.70;;;5.70;;
69779;SDS011;57052;55.602;38.096;2023-09-19T03:51:23;9.98;;;6.03;;
69779;SDS011;57052;55.602;38.096;2023-09-19T03:53:48;16.08;;;6.72;;
69779;SDS011;57052;55.602;38.096;2023-09-19T03:56:15;13.13;;;6.75;;
69779;SDS011;57052;55.602;38.096;2023-09-19T03:58:41;10.35;;;6.07;;
69779;SDS011;57052;55.602;38.096;2023-09-19T04:01:06;12.82;;;5.90;;
69779;SDS011;57052;55.602;38.096;2023-09-19T04:03:33;11.68;;;5.90;;
69779;SDS011;57052;55.602;38.096;2023-09-19T04:06:14;10.88;;;6.55;;
69779;SDS011;57052;55.602;38.096;2023-09-19T04:08:41;13.00;;;6.35;;
69779;SDS011;57052;55.602;38.096;2023-09-19T04:11:07;12.05;;;5.78;;
69779;SDS011;57052;55.602;38.096;2023-09-19T04:13:33;11.25;;;6.40;;
69779;SDS011;57052;55.602;38.096;2023-09-19T04:15:58;13.45;;;6.15;;
69779;SDS011;57052;55.602;38.096;2023-09-19T04:18:25;12.48;;;6.00;;
69779;SDS011;57052;55.602;38.096;2023-09-19T04:20:51;11.77;;;6.28;;
69779;SDS011;57052;55.602;38.096;2023-09-19T04:23:17;12.60;;;6.13;;
69779;SDS011;57052;55.602;38.096;2023-09-19T04:25:45;13.20;;;6.63;;
69779;SDS011;57052;55.602;38.096;2023-09-19T04:28:11;9.77;;;6.13;;
69779;SDS011;57052;55.602;38.096;2023-09-19T04:30:37;13.27;;;6.00;;
69779;SDS011;57052;55.602;38.096;2023-09-19T04:33:05;13.88;;;6.53;;
69779;SDS011;57052;55.602;38.096;2023-09-19T04:35:31;13.85;;;7.38;;
69779;SDS011;57052;55.602;38.096;2023-09-19T04:37:57;13.00;;;6.60;;
69779;SDS011;57052;55.602;38.096;2023-09-19T04:40:23;12.70;;;6.80;;
69779;SDS011;57052;55.602;38.096;2023-09-19T04:42:58;16.50;;;7.22;;
69779;SDS011;57052;55.602;38.096;2023-09-19T04:45:27;12.47;;;6.43;;
69779;SDS011;57052;55.602;38.096;2023-09-19T04:47:53;13.88;;;6.75;;
69779;SDS011;57052;55.602;38.096;2023-09-19T04:50:19;12.38;;;6.72;;
69779;SDS011;57052;55.602;38.096;2023-09-19T04:52:48;13.20;;;7.07;;
69779;SDS011;57052;55.602;38.096;2023-09-19T04:55:16;15.70;;;6.85;;
69779;SDS011;57052;55.602;38.096;2023-09-19T04:57:49;13.27;;;6.70;;
69779;SDS011;57052;55.602;38.096;2023-09-19T05:00:17;13.93;;;6.78;;
69779;SDS011;57052;55.602;38.096;2023-09-19T05:02:56;12.43;;;6.32;;
69779;SDS011;57052;55.602;38.096;2023-09-19T05:05:22;11.25;;;6.50;;
69779;SDS011;57052;55.602;38.096;2023-09-19T05:07:51;13.30;;;7.18;;
69779;SDS011;57052;55.602;38.096;2023-09-19T05:10:19;14.88;;;6.78;;
69779;SDS011;57052;55.602;38.096;2023-09-19T05:12:45;13.55;;;7.05;;
69779;SDS011;57052;55.602;38.096;2023-09-19T05:15:13;13.10;;;7.07;;
69779;SDS011;57052;55.602;38.096;2023-09-19T05:17:47;11.02;;;6.20;;
69779;SDS011;57052;55.602;38.096;2023-09-19T05:20:15;12.43;;;6.82;;
69779;SDS011;57052;55.602;38.096;2023-09-19T05:22:50;14.32;;;6.75;;
69779;SDS011;57052;55.602;38.096;2023-09-19T05:25:34;12.68;;;6.50;;
69779;SDS011;57052;55.602;38.096;2023-09-19T05:28:08;12.25;;;6.80;;
69779;SDS011;57052;55.602;38.096;2023-09-19T05:30:40;13.30;;;6.85;;
69779;SDS011;57052;55.602;38.096;2023-09-19T05:33:08;12.75;;;6.60;;
69779;SDS011;57052;55.602;38.096;2023-09-19T05:35:34;12.30;;;6.82;;
69779;SDS011;57052;55.602;38.096;2023-09-19T05:38:05;12.38;;;6.47;;
69779;SDS011;57052;55.602;38.096;2023-09-19T05:40:34;12.02;;;6.45;;
69779;SDS011;57052;55.602;38.096;2023-09-19T05:43:00;11.35;;;6.85;;
69779;SDS011;57052;55.602;38.096;2023-09-19T05:45:27;11.25;;;6.57;;
69779;SDS011;57052;55.602;38.096;2023-09-19T05:47:53;14.90;;;7.03;;
69779;SDS011;57052;55.602;38.096;2023-09-19T05:50:29;11.10;;;7.00;;
69779;SDS011;57052;55.602;38.096;2023-09-19T05:52:55;14.68;;;7.30;;
69779;SDS011;57052;55.602;38.096;2023-09-19T05:55:23;12.68;;;6.85;;
69779;SDS011;57052;55.602;38.096;2023-09-19T05:57:51;15.00;;;7.25;;
69779;SDS011;57052;55.602;38.096;2023-09-19T06:00:20;13.85;;;7.07;;
69779;SDS011;57052;55.602;38.096;2023-09-19T06:02:51;14.65;;;6.65;;
69779;SDS011;57052;55.602;38.096;2023-09-19T06:05:18;12.80;;;6.45;;
69779;SDS011;57052;55.602;38.096;2023-09-19T06:07:44;12.50;;;7.03;;
69779;SDS011;57052;55.602;38.096;2023-09-19T06:10:09;12.77;;;6.45;;
69779;SDS011;57052;55.602;38.096;2023-09-19T06:12:38;11.43;;;6.57;;
69779;SDS011;57052;55.602;38.096;2023-09-19T06:15:04;11.35;;;6.50;;
69779;SDS011;57052;55.602;38.096;2023-09-19T06:17:31;15.88;;;7.55;;
69779;SDS011;57052;55.602;38.096;2023-09-19T06:19:57;11.70;;;6.80;;
69779;SDS011;57052;55.602;38.096;2023-09-19T06:22:23;12.98;;;6.88;;
69779;SDS011;57052;55.602;38.096;2023-09-19T06:24:49;14.50;;;6.90;;
69779;SDS011;57052;55.602;38.096;2023-09-19T06:27:15;13.95;;;6.93;;
69779;SDS011;57052;55.602;38.096;2023-09-19T06:29:41;13.88;;;7.05;;
69779;SDS011;57052;55.602;38.096;2023-09-19T06:32:07;14.00;;;6.43;;
69779;SDS011;57052;55.602;38.096;2023-09-19T06:34:36;12.18;;;6.47;;
69779;SDS011;57052;55.602;38.096;2023-09-19T06:37:08;10.13;;;6.32;;
69779;SDS011;57052;55.602;38.096;2023-09-19T06:39:34;10.82;;;6.57;;
69779;SDS011;57052;55.602;38.096;2023-09-19T06:41:59;13.70;;;7.15;;
69779;SDS011;57052;55.602;38.096;2023-09-19T06:44:27;14.75;;;6.85;;
69779;SDS011;57052;55.602;38.096;2023-09-19T06:46:54;12.95;;;6.40;;
69779;SDS011;57052;55.602;38.096;2023-09-19T06:49:20;12.48;;;6.18;;
69779;SDS011;57052;55.602;38.096;2023-09-19T06:51:46;12.57;;;6.60;;
69779;SDS011;57052;55.602;38.096;2023-09-19T06:54:11;11.98;;;6.68;;
69779;SDS011;57052;55.602;38.096;2023-09-19T06:56:37;13.23;;;6.15;;
69779;SDS011;57052;55.602;38.096;2023-09-19T06:59:03;13.55;;;6.55;;
69779;SDS011;57052;55.602;38.096;2023-09-19T07:01:32;11.60;;;6.05;;
69779;SDS011;57052;55.602;38.096;2023-09-19T07:03:59;14.77;;;6.60;;
69779;SDS011;57052;55.602;38.096;2023-09-19T07:06:24;11.35;;;6.13;;
69779;SDS011;57052;55.602;38.096;2023-09-19T07:08:50;12.13;;;6.25;;
69779;SDS011;57052;55.602;38.096;2023-09-19T07:11:15;10.95;;;6.70;;
69779;SDS011;57052;55.602;38.096;2023-09-19T07:13:41;10.23;;;6.20;;
69779;SDS011;57052;55.602;38.096;2023-09-19T07:16:07;10.93;;;6.53;;
69779;SDS011;57052;55.602;38.096;2023-09-19T07:18:35;10.88;;;6.50;;
69779;SDS011;57052;55.602;38.096;2023-09-19T07:21:02;10.32;;;5.60;;
69779;SDS011;57052;55.602;38.096;2023-09-19T07:23:30;8.63;;;5.40;;
69779;SDS011;57052;55.602;38.096;2023-09-19T07:26:01;13.00;;;6.25;;
69779;SDS011;57052;55.602;38.096;2023-09-19T07:28:28;11.07;;;6.22;;
69779;SDS011;57052;55.602;38.096;2023-09-19T07:30:54;11.95;;;6.70;;
69779;SDS011;57052;55.602;38.096;2023-09-19T07:33:20;16.77;;;6.18;;
69779;SDS011;57052;55.602;38.096;2023-09-19T07:35:46;9.73;;;5.80;;
69779;SDS011;57052;55.602;38.096;2023-09-19T07:38:13;14.95;;;6.70;;
69779;SDS011;57052;55.602;38.096;2023-09-19T07:40:39;10.75;;;6.22;;
69779;SDS011;57052;55.602;38.096;2023-09-19T07:43:05;10.27;;;6.32;;
69779;SDS011;57052;55.602;38.096;2023-09-19T07:45:32;11.63;;;6.03;;
69779;SDS011;57052;55.602;38.096;2023-09-19T07:47:57;12.98;;;5.75;;
69779;SDS011;57052;55.602;38.096;2023-09-19T07:50:25;12.25;;;7.05;;
69779;SDS011;57052;55.602;38.096;2023-09-19T07:52:52;13.15;;;6.38;;
69779;SDS011;57052;55.602;38.096;2023-09-19T07:55:20;13.90;;;6.85;;
69779;SDS011;57052;55.602;38.096;2023-09-19T07:57:49;12.60;;;6.38;;
69779;SDS011;57052;55.602;38.096;2023-09-19T08:00:15;12.68;;;6.80;;
69779;SDS011;57052;55.602;38.096;2023-09-19T08:02:41;11.65;;;6.20;;
69779;SDS011;57052;55.602;38.096;2023-09-19T08:05:09;15.20;;;6.70;;
69779;SDS011;57052;55.602;38.096;2023-09-19T08:07:36;12.20;;;6.28;;
69779;SDS011;57052;55.602;38.096;2023-09-19T08:10:03;14.98;;;6.53;;
69779;SDS011;57052;55.602;38.096;2023-09-19T08:12:33;13.05;;;6.70;;
69779;SDS011;57052;55.602;38.096;2023-09-19T08:15:01;11.35;;;5.45;;
69779;SDS011;57052;55.602;38.096;2023-09-19T08:17:33;11.80;;;5.85;;
69779;SDS011;57052;55.602;38.096;2023-09-19T08:20:00;12.00;;;6.53;;
69779;SDS011;57052;55.602;38.096;2023-09-19T08:22:26;12.95;;;6.05;;
69779;SDS011;57052;55.602;38.096;2023-09-19T08:24:52;17.38;;;6.63;;
69779;SDS011;57052;55.602;38.096;2023-09-19T08:27:18;11.18;;;6.43;;
69779;SDS011;57052;55.602;38.096;2023-09-19T08:29:44;10.73;;;6.20;;
69779;SDS011;57052;55.602;38.096;2023-09-19T08:32:11;11.30;;;6.38;;
69779;SDS011;57052;55.602;38.096;2023-09-19T08:34:37;11.55;;;6.25;;
69779;SDS011;57052;55.602;38.096;2023-09-19T08:37:03;12.75;;;5.95;;
69779;SDS011;57052;55.602;38.096;2023-09-19T08:39:29;10.93;;;5.95;;
69779;SDS011;57052;55.602;38.096;2023-09-19T08:41:59;14.57;;;6.40;;
69779;SDS011;57052;55.602;38.096;2023-09-19T08:44:26;10.77;;;6.40;;
69779;SDS011;57052;55.602;38.096;2023-09-19T08:46:58;12.40;;;6.22;;
69779;SDS011;57052;55.602;38.096;2023-09-19T08:49:36;12.32;;;6.00;;
69779;SDS011;57052;55.602;38.096;2023-09-19T08:52:25;14.75;;;6.38;;
69779;SDS011;57052;55.602;38.096;2023-09-19T08:54:52;12.07;;;6.30;;
69779;SDS011;57052;55.602;38.096;2023-09-19T08:57:28;10.93;;;5.82;;
69779;SDS011;57052;55.602;38.096;2023-09-19T08:59:58;11.18;;;5.78;;
69779;SDS011;57052;55.602;38.096;2023-09-19T09:02:26;14.90;;;6.43;;
69779;SDS011;57052;55.602;38.096;2023-09-19T09:04:52;10.73;;;6.20;;
69779;SDS011;57052;55.602;38.096;2023-09-19T09:07:20;12.18;;;6.25;;
69779;SDS011;57052;55.602;38.096;2023-09-19T09:09:46;11.75;;;5.90;;
69779;SDS011;57052;55.602;38.096;2023-09-19T09:12:14;10.45;;;5.85;;
69779;SDS011;57052;55.602;38.096;2023-09-19T09:14:44;12.65;;;6.38;;
69779;SDS011;57052;55.602;38.096;2023-09-19T09:17:16;11.35;;;6.40;;
69779;SDS011;57052;55.602;38.096;2023-09-19T09:19:46;11.70;;;6.18;;
69779;SDS011;57052;55.602;38.096;2023-09-19T09:22:12;13.43;;;6.22;;
69779;SDS011;57052;55.602;38.096;2023-09-19T09:24:59;16.90;;;6.40;;
69779;SDS011;57052;55.602;38.096;2023-09-19T09:27:26;11.27;;;6.30;;
69779;SDS011;57052;55.602;38.096;2023-09-19T09:29:52;10.88;;;5.70;;
69779;SDS011;57052;55.602;38.096;2023-09-19T09:32:25;10.95;;;6.57;;
69779;SDS011;57052;55.602;38.096;2023-09-19T09:37:18;11.63;;;6.55;;
69779;SDS011;57052;55.602;38.096;2023-09-19T09:40:01;11.98;;;6.68;;
69779;SDS011;57052;55.602;38.096;2023-09-19T09:42:39;13.10;;;6.57;;
69779;SDS011;57052;55.602;38.096;2023-09-19T09:47:54;11.88;;;6.38;;
69779;SDS011;57052;55.602;38.096;2023-09-19T09:50:23;11.60;;;7.28;;
69779;SDS011;57052;55.602;38.096;2023-09-19T09:55:56;13.98;;;7.60;;
69779;SDS011;57052;55.602;38.096;2023-09-19T09:58:22;15.25;;;7.57;;
69779;SDS011;57052;55.602;38.096;2023-09-19T10:00:57;12.23;;;7.25;;
69779;SDS011;57052;55.602;38.096;2023-09-19T10:03:30;12.05;;;6.65;;
69779;SDS011;57052;55.602;38.096;2023-09-19T10:06:10;13.18;;;7.28;;
69779;SDS011;57052;55.602;38.096;2023-09-19T10:11:44;13.18;;;7.32;;
69779;SDS011;57052;55.602;38.096;2023-09-19T10:14:12;15.15;;;7.10;;
69779;SDS011;57052;55.602;38.096;2023-09-19T10:16:44;12.93;;;7.60;;
69779;SDS011;57052;55.602;38.096;2023-09-19T10:19:15;14.55;;;8.63;;
69779;SDS011;57052;55.602;38.096;2023-09-19T10:21:47;14.77;;;8.02;;
69779;SDS011;57052;55.602;38.096;2023-09-19T10:24:15;13.75;;;7.57;;
69779;SDS011;57052;55.602;38.096;2023-09-19T10:26:42;11.10;;;7.32;;
69779;SDS011;57052;55.602;38.096;2023-09-19T10:29:10;14.68;;;8.38;;
69779;SDS011;57052;55.602;38.096;2023-09-19T10:31:41;11.98;;;7.93;;
69779;SDS011;57052;55.602;38.096;2023-09-19T10:34:14;15.05;;;8.27;;
69779;SDS011;57052;55.602;38.096;2023-09-19T10:36:40;16.42;;;8.88;;
69779;SDS011;57052;55.602;38.096;2023-09-19T10:39:10;13.82;;;7.97;;
69779;SDS011;57052;55.602;38.096;2023-09-19T10:41:38;14.70;;;8.13;;
69779;SDS011;57052;55.602;38.096;2023-09-19T10:44:04;16.27;;;7.35;;
69779;SDS011;57052;55.602;38.096;2023-09-19T10:46:31;14.90;;;8.70;;
69779;SDS011;57052;55.602;38.096;2023-09-19T10:49:01;15.45;;;9.00;;
69779;SDS011;57052;55.602;38.096;2023-09-19T10:51:32;13.02;;;7.78;;
69779;SDS011;57052;55.602;38.096;2023-09-19T10:54:06;12.52;;;7.78;;
69779;SDS011;57052;55.602;38.096;2023-09-19T10:56:38;15.50;;;8.13;;
69779;SDS011;57052;55.602;38.096;2023-09-19T10:59:11;14.38;;;8.65;;
69779;SDS011;57052;55.602;38.096;2023-09-19T11:01:42;15.40;;;8.57;;
69779;SDS011;57052;55.602;38.096;2023-09-19T11:09:48;15.70;;;8.35;;
69779;SDS011;57052;55.602;38.096;2023-09-19T11:14:54;14.07;;;8.10;;
69779;SDS011;57052;55.602;38.096;2023-09-19T11:30:41;12.82;;;8.05;;
69779;SDS011;57052;55.602;38.096;2023-09-19T11:33:17;15.40;;;8.10;;
69779;SDS011;57052;55.602;38.096;2023-09-19T11:36:06;12.07;;;7.95;;
69779;SDS011;57052;55.602;38.096;2023-09-19T11:49:31;12.20;;;7.53;;
69779;SDS011;57052;55.602;38.096;2023-09-19T11:51:59;20.08;;;8.02;;
69779;SDS011;57052;55.602;38.096;2023-09-19T11:54:26;15.13;;;7.50;;
69779;SDS011;57052;55.602;38.096;2023-09-19T11:56:57;13.43;;;7.20;;
69779;SDS011;57052;55.602;38.096;2023-09-19T11:59:27;12.45;;;7.80;;
69779;SDS011;57052;55.602;38.096;2023-09-19T12:02:06;15.25;;;7.70;;
69779;SDS011;57052;55.602;38.096;2023-09-19T12:07:12;12.02;;;6.95;;
69779;SDS011;57052;55.602;38.096;2023-09-19T12:09:43;15.57;;;7.32;;
69779;SDS011;57052;55.602;38.096;2023-09-19T12:12:22;11.95;;;7.38;;
69779;SDS011;57052;55.602;38.096;2023-09-19T12:14:53;14.38;;;7.50;;
69779;SDS011;57052;55.602;38.096;2023-09-19T12:17:20;12.38;;;6.68;;
69779;SDS011;57052;55.602;38.096;2023-09-19T12:19:56;11.38;;;6.97;;
69779;SDS011;57052;55.602;38.096;2023-09-19T12:22:22;11.68;;;6.93;;
69779;SDS011;57052;55.602;38.096;2023-09-19T12:24:48;12.93;;;6.95;;
69779;SDS011;57052;55.602;38.096;2023-09-19T12:27:15;12.98;;;7.40;;
69779;SDS011;57052;55.602;38.096;2023-09-19T12:29:42;11.10;;;6.80;;
69779;SDS011;57052;55.602;38.096;2023-09-19T12:32:14;12.93;;;6.65;;
69779;SDS011;57052;55.602;38.096;2023-09-19T12:34:42;11.77;;;6.80;;
69779;SDS011;57052;55.602;38.096;2023-09-19T12:37:16;13.45;;;6.28;;
69779;SDS011;57052;55.602;38.096;2023-09-19T12:39:48;11.65;;;6.90;;
69779;SDS011;57052;55.602;38.096;2023-09-19T12:42:20;14.05;;;7.05;;
69779;SDS011;57052;55.602;38.096;2023-09-19T12:44:52;13.30;;;6.55;;
69779;SDS011;57052;55.602;38.096;2023-09-19T12:47:22;11.00;;;6.95;;
69779;SDS011;57052;55.602;38.096;2023-09-19T12:52:43;14.38;;;7.80;;
69779;SDS011;57052;55.602;38.096;2023-09-19T12:55:30;20.85;;;9.57;;
69779;SDS011;57052;55.602;38.096;2023-09-19T12:58:14;20.20;;;9.10;;
69779;SDS011;57052;55.602;38.096;2023-09-19T13:05:51;13.93;;;6.85;;
69779;SDS011;57052;55.602;38.096;2023-09-19T13:08:35;15.02;;;6.93;;
69779;SDS011;57052;55.602;38.096;2023-09-19T13:11:09;13.27;;;6.60;;
69779;SDS011;57052;55.602;38.096;2023-09-19T13:13:42;13.95;;;7.20;;
69779;SDS011;57052;55.602;38.096;2023-09-19T13:16:13;16.27;;;7.88;;
69779;SDS011;57052;55.602;38.096;2023-09-19T13:18:44;11.38;;;6.35;;
69779;SDS011;57052;55.602;38.096;2023-09-19T13:21:11;13.70;;;7.60;;
69779;SDS011;57052;55.602;38.096;2023-09-19T13:23:48;10.82;;;7.13;;
69779;SDS011;57052;55.602;38.096;2023-09-19T13:26:17;14.07;;;7.00;;
69779;SDS011;57052;55.602;38.096;2023-09-19T13:28:44;10.30;;;6.60;;
69779;SDS011;57052;55.602;38.096;2023-09-19T13:31:10;11.32;;;7.10;;
69779;SDS011;57052;55.602;38.096;2023-09-19T13:33:42;12.80;;;6.75;;
69779;SDS011;57052;55.602;38.096;2023-09-19T13:36:10;15.25;;;6.85;;
69779;SDS011;57052;55.602;38.096;2023-09-19T13:38:37;11.63;;;6.60;;
69779;SDS011;57052;55.602;38.096;2023-09-19T13:41:03;10.15;;;6.28;;
69779;SDS011;57052;55.602;38.096;2023-09-19T13:43:28;12.38;;;6.85;;
69779;SDS011;57052;55.602;38.096;2023-09-19T13:45:54;11.85;;;7.15;;
69779;SDS011;57052;55.602;38.096;2023-09-19T13:48:20;13.05;;;6.78;;
69779;SDS011;57052;55.602;38.096;2023-09-19T13:50:48;13.25;;;6.90;;
69779;SDS011;57052;55.602;38.096;2023-09-19T13:53:14;11.98;;;6.93;;
69779;SDS011;57052;55.602;38.096;2023-09-19T13:55:42;14.82;;;7.25;;
69779;SDS011;57052;55.602;38.096;2023-09-19T13:58:08;13.35;;;7.35;;
69779;SDS011;57052;55.602;38.096;2023-09-19T14:00:36;9.60;;;6.55;;
69779;SDS011;57052;55.602;38.096;2023-09-19T14:03:01;14.45;;;7.57;;
69779;SDS011;57052;55.602;38.096;2023-09-19T14:05:29;14.25;;;7.10;;
69779;SDS011;57052;55.602;38.096;2023-09-19T14:07:56;14.65;;;7.60;;
69779;SDS011;57052;55.602;38.096;2023-09-19T14:10:24;13.93;;;7.20;;
69779;SDS011;57052;55.602;38.096;2023-09-19T14:12:55;11.07;;;7.40;;
69779;SDS011;57052;55.602;38.096;2023-09-19T14:15:23;10.43;;;7.10;;
69779;SDS011;57052;55.602;38.096;2023-09-19T14:17:58;16.17;;;7.20;;
69779;SDS011;57052;55.602;38.096;2023-09-19T14:20:26;10.95;;;7.20;;
69779;SDS011;57052;55.602;38.096;2023-09-19T14:22:54;13.38;;;6.72;;
69779;SDS011;57052;55.602;38.096;2023-09-19T14:25:20;13.10;;;6.90;;
69779;SDS011;57052;55.602;38.096;2023-09-19T14:27:47;14.77;;;7.63;;
69779;SDS011;57052;55.602;38.096;2023-09-19T14:30:13;12.52;;;7.32;;
69779;SDS011;57052;55.602;38.096;2023-09-19T14:32:39;12.32;;;6.85;;
69779;SDS011;57052;55.602;38.096;2023-09-19T14:35:06;13.57;;;7.40;;
69779;SDS011;57052;55.602;38.096;2023-09-19T14:37:32;13.45;;;8.02;;
69779;SDS011;57052;55.602;38.096;2023-09-19T14:39:58;15.18;;;7.05;;
69779;SDS011;57052;55.602;38.096;2023-09-19T14:42:24;13.85;;;7.82;;
69779;SDS011;57052;55.602;38.096;2023-09-19T14:44:49;15.00;;;7.55;;
69779;SDS011;57052;55.602;38.096;2023-09-19T14:47:15;12.23;;;7.47;;
69779;SDS011;57052;55.602;38.096;2023-09-19T14:49:42;17.45;;;7.90;;
69779;SDS011;57052;55.602;38.096;2023-09-19T14:52:08;12.85;;;7.50;;
69779;SDS011;57052;55.602;38.096;2023-09-19T14:54:35;12.10;;;7.43;;
69779;SDS011;57052;55.602;38.096;2023-09-19T14:57:03;19.50;;;7.50;;
69779;SDS011;57052;55.602;38.096;2023-09-19T14:59:32;12.18;;;7.47;;
69779;SDS011;57052;55.602;38.096;2023-09-19T15:04:28;16.25;;;8.13;;
69779;SDS011;57052;55.602;38.096;2023-09-19T15:06:54;13.98;;;7.82;;
69779;SDS011;57052;55.602;38.096;2023-09-19T15:09:21;13.50;;;7.68;;
69779;SDS011;57052;55.602;38.096;2023-09-19T15:11:54;12.55;;;7.75;;
69779;SDS011;57052;55.602;38.096;2023-09-19T15:14:21;13.50;;;7.90;;
69779;SDS011;57052;55.602;38.096;2023-09-19T15:16:48;17.80;;;7.95;;
69779;SDS011;57052;55.602;38.096;2023-09-19T15:19:14;16.52;;;8.20;;
69779;SDS011;57052;55.602;38.096;2023-09-19T15:21:41;15.95;;;8.20;;
69779;SDS011;57052;55.602;38.096;2023-09-19T15:24:07;12.45;;;8.00;;
69779;SDS011;57052;55.602;38.096;2023-09-19T15:26:35;14.20;;;7.65;;
69779;SDS011;57052;55.602;38.096;2023-09-19T15:29:05;14.68;;;7.72;;
69779;SDS011;57052;55.602;38.096;2023-09-19T15:31:31;14.15;;;8.75;;
69779;SDS011;57052;55.602;38.096;2023-09-19T15:33:57;13.52;;;7.82;;
69779;SDS011;57052;55.602;38.096;2023-09-19T15:36:23;19.33;;;8.50;;
69779;SDS011;57052;55.602;38.096;2023-09-19T15:38:59;13.63;;;8.23;;
69779;SDS011;57052;55.602;38.096;2023-09-19T15:41:26;14.65;;;8.00;;